Diomede, Alaska
Current Conditions -  °F | °C
As of 10:58 AM on Monday 22 Dec 2014 (Local Time) from PATE Reporting Station
Overcast Overcast  
Wind Chill: -26°   Ceiling: 4000
Heat Index: -19°   Visibility: 10mi
Dew Point: -21°   Wind: 6mph
Humidity: 87%   Direction: 160°SSE
Pressure: 30.04"   Gusts: NA
Location:  65.1617°N, 164.975°W
Report Text: PATE 221958Z AUTO 16005KT 10SM FEW018 OVC040 M19/M21 A3004 RMK AO2 SLP186 T11941211 FZRANO
Loading
Personal Weather Stations






























Interactive Weather Map New forecast layout! Learn more

10-Day Weather Forecast

Advertisements
Track Severe Weather on mobile